This is the latest recevied weather packets stored in our database for station/object AE7VB. If no packets are shown the sender has not sent any weather packets the latest 10 day(s).
| Time | Temp. | Humidity | Pressure | Rain* | Wind** | Luminosity | Snow |
|---|---|---|---|---|---|---|---|
| 1777766285 | 22.22° C | 29% | 1019.1 hPa | 0 mm | - | - | - |
| 1777763246 | 22.78° C | 39% | 1019.9 hPa | 0 mm | - | - | - |
| 1777757173 | 23.33° C | 36% | 1020.6 hPa | 0 mm | - | - | - |
| 1777751763 | 21.11° C | 47% | 1021.2 hPa | 0 mm | - | - | - |
| 1777749960 | 20.56° C | 48% | 1021.3 hPa | 0 mm | - | - | - |
| 1777743856 | 18.89° C | 45% | 1022.1 hPa | 0 mm | - | - | - |
| 1777740218 | 16.11° C | 50% | 1021.8 hPa | 0 mm | - | - | - |
| 1777739617 | 16.11° C | 53% | 1021.8 hPa | 0 mm | - | - | - |
| 1777737183 | 13.89° C | 55% | 1021.7 hPa | 0 mm | - | - | - |
| 1777736582 | 13.89° C | 56% | 1021.7 hPa | 0 mm | - | - | - |
| 1777733578 | 12.78° C | 56% | 1021.9 hPa | 0 mm | - | - | - |
| 1777732376 | 12.22° C | 57% | 1022.2 hPa | 0 mm | - | - | - |
| 1777731174 | 10.56° C | 64% | 1022.2 hPa | 0 mm | - | - | - |
| 1777725163 | 8.33° C | 67% | 1022.1 hPa | 0 mm | - | - | - |
| 1777724562 | 8.33° C | 67% | 1022.1 hPa | 0 mm | - | - | - |
| 1777723361 | 8.33° C | 68% | 1022 hPa | 0 mm | - | - | - |
| 1777721527 | 8.33° C | 69% | 1022 hPa | 0 mm | - | - | - |
| 1777717257 | 10.56° C | 60% | 1022.5 hPa | 0 mm | - | - | - |
| 1777716657 | 9.44° C | 63% | 1022.6 hPa | 0 mm | - | - | - |
| 1777712418 | 10° C | 62% | 1022.3 hPa | 0 mm | - | - | - |
| 1777707516 | 10° C | 61% | 1022.6 hPa | 0 mm | - | - | - |
| 1777706916 | 10° C | 61% | 1022.6 hPa | 0 mm | - | - | - |
| 1777705113 | 11.11° C | 59% | 1022.6 hPa | 0 mm | - | - | - |
| 1777703880 | 11.67° C | 59% | 1022.7 hPa | 0 mm | - | - | - |
| 1777703248 | 11.11° C | 58% | 1022.5 hPa | 0 mm | - | - | - |
* Rain latest hour (hover to see other rain measurements)
** Current wind speed in m/s (hover to see current wind gust speed)